Time;durP1;ratioP1;P1;durP2;ratioP2;P2;SDS_P1;SDS_P2;PMS_P1;PMS_P2;Temp;Humidity;BMP_temperature;BMP_pressure;BME280_temperature;BME280_humidity;BME280_pressure;Samples;Min_cycle;Max_cycle;Signal;HPM_P1;HPM_P2
2022/09/17 03:01:55;;;;;;;1.50;0.40;;;21.70;45.00;;;;;;5290172;23;45788;-63
2022/09/17 03:04:21;;;;;;;0.43;0.40;;;21.70;45.20;;;;;;4897115;28;47515;-63
2022/09/17 03:06:47;;;;;;;0.85;0.40;;;21.60;45.20;;;;;;4876714;28;45277;-62
2022/09/17 03:09:15;;;;;;;1.00;0.50;;;21.60;45.20;;;;;;4899467;28;45336;-62
2022/09/17 03:11:41;;;;;;;1.13;0.40;;;21.60;45.10;;;;;;4897459;28;45260;-62
2022/09/17 03:14:06;;;;;;;0.98;0.45;;;21.60;45.10;;;;;;4879716;28;45437;-61
2022/09/17 03:16:32;;;;;;;1.17;0.40;;;21.60;45.10;;;;;;4910906;28;46131;-62
2022/09/17 03:18:57;;;;;;;1.77;0.70;;;21.60;45.10;;;;;;4897674;28;45642;-63
2022/09/17 03:21:23;;;;;;;1.15;0.50;;;21.60;45.10;;;;;;4930775;28;45571;-63
2022/09/17 03:23:48;;;;;;;1.20;0.60;;;21.60;45.10;;;;;;4913188;28;45349;-62
2022/09/17 03:26:14;;;;;;;2.45;0.50;;;21.60;45.10;;;;;;4896448;28;45260;-63
2022/09/17 03:28:39;;;;;;;0.93;0.50;;;21.60;45.10;;;;;;4893995;28;45663;-63
2022/09/17 03:31:05;;;;;;;1.58;0.40;;;21.60;45.10;;;;;;4931599;28;45764;-63
2022/09/17 03:33:31;;;;;;;1.88;0.47;;;21.60;45.10;;;;;;4914902;28;45485;-61
2022/09/17 03:35:57;;;;;;;1.75;0.57;;;21.60;45.00;;;;;;4897171;28;45335;-63
2022/09/17 03:38:22;;;;;;;1.20;0.57;;;21.60;45.10;;;;;;4911977;28;45442;-61
2022/09/17 03:41:02;;;;;;;1.15;0.47;;;21.60;44.90;;;;;;4881860;28;44723;-62
2022/09/17 03:43:28;;;;;;;0.95;0.57;;;21.60;44.80;;;;;;4895091;28;47221;-63
2022/09/17 03:45:54;;;;;;;0.77;0.40;;;21.60;45.00;;;;;;4896106;28;44696;-63
2022/09/17 03:48:20;;;;;;;1.33;0.52;;;21.60;45.00;;;;;;4897216;28;45593;-61
2022/09/17 03:50:46;;;;;;;1.10;0.50;;;21.60;45.00;;;;;;4911941;28;45386;-62
2022/09/17 03:53:11;;;;;;;0.93;0.43;;;21.60;45.00;;;;;;4898179;28;45550;-63
2022/09/17 03:55:37;;;;;;;0.85;0.43;;;21.60;45.00;;;;;;4895488;28;45619;-62
2022/09/17 03:58:03;;;;;;;0.95;0.47;;;21.60;45.00;;;;;;4907003;28;45567;-63
2022/09/17 04:00:28;;;;;;;1.00;0.43;;;21.60;45.00;;;;;;4924207;28;45655;-63
2022/09/17 04:02:54;;;;;;;0.90;0.43;;;21.60;45.00;;;;;;4894587;28;45612;-63
2022/09/17 04:05:20;;;;;;;0.60;0.40;;;21.50;45.00;;;;;;4911681;28;45421;-63
2022/09/17 04:07:45;;;;;;;1.23;0.50;;;21.50;45.00;;;;;;4897330;28;45334;-63
2022/09/17 04:10:11;;;;;;;0.40;0.40;;;21.60;45.00;;;;;;4925788;28;45452;-62
2022/09/17 04:12:36;;;;;;;1.25;0.45;;;21.50;45.00;;;;;;4928294;28;45513;-63
2022/09/17 04:15:02;;;;;;;1.15;0.60;;;21.50;45.00;;;;;;4911091;28;45224;-63
2022/09/17 04:17:28;;;;;;;1.48;0.43;;;21.50;45.00;;;;;;4926581;28;45663;-63
2022/09/17 04:19:54;;;;;;;0.57;0.30;;;21.50;45.00;;;;;;4892957;28;46525;-62
2022/09/17 04:22:19;;;;;;;0.77;0.43;;;21.50;45.00;;;;;;4907558;28;46875;-63
2022/09/17 04:24:45;;;;;;;0.85;0.40;;;21.50;45.00;;;;;;4912785;28;44853;-63
2022/09/17 04:27:10;;;;;;;0.50;0.40;;;21.50;45.00;;;;;;4912741;28;45592;-63
2022/09/17 04:29:36;;;;;;;2.78;0.60;;;21.50;45.00;;;;;;4911590;28;45345;-61
2022/09/17 04:32:02;;;;;;;0.82;0.47;;;21.50;45.00;;;;;;4926008;28;45458;-62
2022/09/17 04:34:28;;;;;;;1.60;0.50;;;21.50;45.10;;;;;;4892819;28;45495;-63
2022/09/17 04:36:53;;;;;;;1.52;0.50;;;21.50;45.10;;;;;;4894674;28;45337;-63
2022/09/17 04:39:19;;;;;;;1.60;0.60;;;21.50;45.00;;;;;;4895868;28;45593;-63
2022/09/17 04:41:44;;;;;;;1.20;0.60;;;21.50;45.00;;;;;;4925436;28;46656;-63
2022/09/17 04:44:10;;;;;;;0.85;0.47;;;21.50;45.00;;;;;;4901580;28;46253;-62
2022/09/17 04:46:36;;;;;;;0.65;0.32;;;21.50;44.90;;;;;;4926388;28;45539;-62
2022/09/17 04:49:01;;;;;;;;;;;21.50;45.00;;;;;;4927587;28;44762;-59
2022/09/17 04:51:26;;;;;;;;;;;21.50;45.60;;;;;;4914156;28;46307;-59
2022/09/17 04:53:52;;;;;;;;;;;21.50;44.80;;;;;;4930099;28;45199;-59
2022/09/17 04:56:17;;;;;;;;;;;21.50;44.60;;;;;;4936238;28;45764;-60
2022/09/17 04:58:43;;;;;;;;;;;21.50;44.60;;;;;;4936702;28;45328;-60
2022/09/17 05:01:08;;;;;;;;;;;21.60;45.20;;;;;;4914790;28;45459;-60
2022/09/17 05:03:34;;;;;;;;;;;21.60;44.50;;;;;;4931224;28;45472;-60
2022/09/17 05:05:59;;;;;;;;;;;21.60;44.40;;;;;;4912717;28;45497;-60
2022/09/17 05:08:25;;;;;;;;;;;21.60;44.40;;;;;;4932568;28;45169;-61
2022/09/17 05:10:50;;;;;;;;;;;21.70;44.40;;;;;;4928233;28;45235;-61
2022/09/17 05:13:16;;;;;;;;;;;21.70;44.40;;;;;;4914443;28;45160;-60
2022/09/17 05:15:41;;;;;;;;;;;21.70;44.40;;;;;;4924978;28;44740;-61
2022/09/17 05:18:07;;;;;;;;;;;21.70;44.40;;;;;;4935910;28;45323;-61
2022/09/17 05:20:32;;;;;;;;;;;21.70;44.30;;;;;;4934078;28;46323;-61
2022/09/17 05:22:58;;;;;;;;;;;21.70;44.30;;;;;;4932515;28;44977;-61
2022/09/17 05:25:23;;;;;;;;;;;21.70;44.30;;;;;;4935994;28;45142;-60
2022/09/17 05:27:49;;;;;;;;;;;21.70;44.30;;;;;;4903486;28;45511;-61
2022/09/17 05:30:14;;;;;;;;;;;21.70;44.30;;;;;;4914541;28;45531;-61
2022/09/17 05:32:40;;;;;;;;;;;21.70;44.30;;;;;;4924743;28;45237;-61
2022/09/17 05:35:06;;;;;;;;;;;21.70;44.30;;;;;;4915954;28;45280;-61
2022/09/17 05:37:31;;;;;;;;;;;21.70;44.30;;;;;;4914644;28;45365;-62
2022/09/17 05:39:56;;;;;;;;;;;21.70;44.30;;;;;;4902382;28;46665;-61
2022/09/17 05:42:22;;;;;;;;;;;21.70;44.40;;;;;;4927546;28;45021;-62
2022/09/17 05:44:48;;;;;;;;;;;21.70;44.50;;;;;;4937353;28;45254;-62
2022/09/17 05:47:13;;;;;;;;;;;21.60;44.50;;;;;;4931521;28;45386;-62
2022/09/17 05:49:39;;;;;;;;;;;21.60;44.60;;;;;;4935767;28;45433;-61
2022/09/17 05:52:04;;;;;;;;;;;21.60;44.60;;;;;;4935819;28;45304;-61
2022/09/17 05:54:30;;;;;;;;;;;21.60;44.60;;;;;;4914019;28;45249;-62
2022/09/17 05:56:55;;;;;;;;;;;21.60;44.70;;;;;;4928414;28;45058;-61
2022/09/17 05:59:21;;;;;;;;;;;21.60;44.70;;;;;;4929338;28;45269;-62
2022/09/17 06:01:47;;;;;;;;;;;21.60;44.70;;;;;;4921273;28;45374;-62
2022/09/17 06:04:12;;;;;;;;;;;21.60;44.70;;;;;;4911930;28;45306;-62
2022/09/17 06:06:40;;;;;;;;;;;21.60;44.70;;;;;;4895332;28;44981;-62
2022/09/17 06:09:06;;;;;;;;;;;21.60;44.70;;;;;;4913560;28;46163;-62
2022/09/17 06:11:31;;;;;;;;;;;21.50;44.70;;;;;;4928670;28;45479;-62
2022/09/17 06:13:57;;;;;;;;;;;21.50;44.70;;;;;;4929585;28;45224;-62
2022/09/17 06:16:22;;;;;;;;;;;21.60;44.70;;;;;;4928319;28;46865;-62
2022/09/17 06:18:54;;;;;;;;;;;21.50;44.70;;;;;;4912342;28;47754;-62
2022/09/17 06:21:22;;;;;;;;;;;21.50;44.70;;;;;;4930490;28;44647;-61
2022/09/17 06:23:48;;;;;;;;;;;21.40;44.70;;;;;;4909756;28;45018;-62
2022/09/17 06:26:13;;;;;;;;;;;21.50;44.70;;;;;;4912396;28;45599;-62
2022/09/17 06:28:39;;;;;;;;;;;21.50;44.70;;;;;;4929882;28;45317;-62
2022/09/17 06:31:06;;;;;;;;;;;21.50;44.70;;;;;;4895468;28;45107;-62
2022/09/17 06:33:31;;;;;;;;;;;21.50;44.70;;;;;;4912830;28;45507;-62
2022/09/17 06:36:00;;;;;;;;;;;21.50;44.70;;;;;;4896805;28;45566;-62
2022/09/17 06:38:26;;;;;;;;;;;21.50;44.80;;;;;;4931811;28;46399;-62
2022/09/17 06:40:52;;;;;;;;;;;21.50;44.80;;;;;;4912362;28;45250;-62
2022/09/17 06:43:17;;;;;;;;;;;21.50;44.80;;;;;;4897171;28;45271;-62
2022/09/17 06:45:43;;;;;;;;;;;21.40;44.70;;;;;;4911137;28;45944;-63
2022/09/17 06:48:08;;;;;;;;;;;21.40;44.80;;;;;;4929165;28;45473;-62
2022/09/17 06:50:34;;;;;;;;;;;21.40;44.70;;;;;;4912186;28;45343;-62
2022/09/17 06:52:59;;;;;;;;;;;21.40;44.70;;;;;;4910438;28;45453;-62
2022/09/17 06:55:28;;;;;;;;;;;21.40;44.70;;;;;;4928919;28;45259;-62
2022/09/17 06:57:54;;;;;;;;;;;21.40;44.70;;;;;;4913289;28;45397;-62
2022/09/17 07:00:19;;;;;;;;;;;21.40;44.80;;;;;;4912153;28;45440;-62
2022/09/17 07:02:55;;;;;;;;;;;21.40;44.80;;;;;;4930924;28;46006;-62
2022/09/17 07:05:20;;;;;;;;;;;21.40;44.80;;;;;;4912527;28;45668;-62
2022/09/17 07:07:46;;;;;;;;;;;21.40;44.80;;;;;;4910722;28;47092;-62
2022/09/17 07:10:11;;;;;;;;;;;21.30;44.80;;;;;;4932407;28;45272;-62
2022/09/17 07:12:40;;;;;;;;;;;21.40;44.90;;;;;;4929911;28;45229;-62
2022/09/17 07:15:06;;;;;;;;;;;21.30;44.90;;;;;;4894841;28;45529;-62
2022/09/17 07:17:31;;;;;;;;;;;21.30;45.00;;;;;;4925620;28;45390;-62
2022/09/17 07:19:57;;;;;;;;;;;21.30;44.90;;;;;;4922444;28;46559;-62
2022/09/17 07:22:25;;;;;;;;;;;21.30;44.90;;;;;;4922169;28;44989;-61
2022/09/17 07:24:51;;;;;;;;;;;21.30;44.80;;;;;;4912033;28;45325;-62
2022/09/17 07:27:17;;;;;;;;;;;21.30;44.80;;;;;;4930511;28;45747;-62
2022/09/17 07:29:42;;;;;;;;;;;21.30;44.80;;;;;;4929198;28;45233;-62
2022/09/17 07:32:08;;;;;;;;;;;21.40;44.80;;;;;;4911319;28;45645;-62
2022/09/17 07:34:33;;;;;;;;;;;21.30;44.80;;;;;;4914378;28;45304;-62
2022/09/17 07:36:59;;;;;;;;;;;21.30;44.80;;;;;;4891081;28;47161;-62
2022/09/17 07:39:24;;;;;;;;;;;21.30;44.90;;;;;;4928927;28;45266;-62
2022/09/17 07:41:50;;;;;;;;;;;21.30;44.90;;;;;;4928827;28;45263;-63
2022/09/17 07:44:15;;;;;;;;;;;21.30;45.00;;;;;;4930441;28;45513;-63
2022/09/17 07:46:41;;;;;;;;;;;21.30;45.00;;;;;;4914093;28;46947;-63
2022/09/17 07:49:06;;;;;;;;;;;21.30;45.00;;;;;;4911448;28;45224;-63
2022/09/17 07:51:32;;;;;;;;;;;21.30;44.90;;;;;;4927452;28;45290;-63
2022/09/17 07:53:57;;;;;;;;;;;21.30;45.00;;;;;;4924491;28;45511;-62
2022/09/17 07:56:23;;;;;;;;;;;21.30;45.00;;;;;;4928202;28;45410;-63
2022/09/17 07:58:49;;;;;;;;;;;21.30;45.00;;;;;;4910190;28;44810;-63
2022/09/17 08:01:17;;;;;;;;;;;21.30;45.00;;;;;;4926251;28;44745;-63
2022/09/17 08:03:46;;;;;;;;;;;21.30;45.10;;;;;;4911446;28;45618;-63
2022/09/17 08:06:12;;;;;;;;;;;21.30;45.00;;;;;;4925082;28;45363;-63
2022/09/17 08:08:38;;;;;;;;;;;21.30;45.00;;;;;;4928861;28;46186;-62
2022/09/17 08:11:04;;;;;;;;;;;21.20;45.00;;;;;;4905635;28;45599;-63
2022/09/17 08:13:30;;;;;;;;;;;21.20;45.00;;;;;;4912019;28;45209;-63
2022/09/17 08:16:02;;;;;;;;;;;21.20;45.00;;;;;;4931155;28;45619;-63
2022/09/17 08:18:28;;;;;;;;;;;21.20;45.10;;;;;;4928399;28;45457;-62
2022/09/17 08:20:58;;;;;;;;;;;21.20;45.10;;;;;;4910003;28;46591;-63
2022/09/17 08:23:24;;;;;;;;;;;21.20;45.10;;;;;;4928465;28;45189;-63
2022/09/17 08:25:53;;;;;;;;;;;21.20;45.10;;;;;;4926534;28;45337;-63
2022/09/17 08:28:18;;;;;;;;;;;21.20;45.10;;;;;;4906981;28;45296;-63
2022/09/17 08:30:45;;;;;;;;;;;21.20;45.10;;;;;;4921457;28;45384;-63
2022/09/17 08:33:10;;;;;;;;;;;21.20;45.10;;;;;;4928725;28;46300;-63
2022/09/17 08:35:36;;;;;;;;;;;21.20;45.10;;;;;;4925916;28;45787;-63
2022/09/17 08:38:01;;;;;;;;;;;21.20;45.10;;;;;;4909875;28;45287;-63
2022/09/17 08:40:27;;;;;;;;;;;21.20;45.10;;;;;;4928174;28;46056;-62
2022/09/17 08:42:56;;;;;;;;;;;21.20;45.10;;;;;;4928821;28;45422;-62
2022/09/17 08:45:21;;;;;;;;;;;21.20;45.10;;;;;;4910999;28;45219;-63
2022/09/17 08:47:47;;;;;;;;;;;21.20;45.10;;;;;;4893424;28;44873;-63
2022/09/17 08:50:18;;;;;;;;;;;21.20;45.10;;;;;;4911197;28;45323;-63
2022/09/17 08:52:43;;;;;;;;;;;21.20;45.10;;;;;;4909977;28;45541;-62
2022/09/17 08:55:22;;;;;;;;;;;21.20;45.10;;;;;;4927554;28;45152;-63
2022/09/17 08:58:01;;;;;;;;;;;21.20;45.10;;;;;;4911032;28;45555;-62
2022/09/17 09:00:26;;;;;;;;;;;21.20;45.10;;;;;;4903357;28;45599;-63
2022/09/17 09:03:04;;;;;;;;;;;21.20;45.10;;;;;;4908386;28;45299;-61
2022/09/17 09:05:32;;;;;;;;;;;21.20;45.20;;;;;;4924427;28;45130;-63
2022/09/17 09:08:24;;;;;;;;;;;21.20;45.10;;;;;;4909190;28;45209;-63
2022/09/17 09:10:51;;;;;;;;;;;21.20;45.10;;;;;;4886191;28;45362;-63
2022/09/17 09:13:17;;;;;;;;;;;21.20;45.10;;;;;;4910451;28;45261;-63
2022/09/17 09:15:44;;;;;;;;;;;21.20;45.20;;;;;;4904467;28;45914;-63
2022/09/17 09:18:12;;;;;;;;;;;21.20;45.20;;;;;;4911645;28;46101;-63
2022/09/17 09:20:54;;;;;;;;;;;21.20;45.10;;;;;;4907489;28;45161;-63
2022/09/17 09:23:28;;;;;;;;;;;21.10;45.10;;;;;;4910814;28;45337;-63
2022/09/17 09:25:56;;;;;;;;;;;21.20;45.20;;;;;;4908694;28;46446;-62
2022/09/17 09:28:31;;;;;;;;;;;21.20;45.10;;;;;;4893486;28;45300;-63
2022/09/17 09:31:16;;;;;;;;;;;21.10;45.10;;;;;;4899872;28;45285;-63
2022/09/17 09:33:41;;;;;;;;;;;21.20;45.10;;;;;;4925519;28;45742;-63
2022/09/17 09:36:09;;;;;;;;;;;21.10;45.10;;;;;;4909450;28;45424;-63
2022/09/17 09:38:36;;;;;;;;;;;21.20;45.10;;;;;;4910282;28;45179;-62
2022/09/17 09:41:01;;;;;;;;;;;21.20;45.20;;;;;;4907902;28;45773;-63
2022/09/17 09:43:42;;;;;;;;;;;21.10;45.10;;;;;;4930959;28;45360;-62
2022/09/17 09:46:08;;;;;;;;;;;21.20;45.20;;;;;;4930300;28;45677;-63
2022/09/17 09:48:54;;;;;;;;;;;21.20;45.10;;;;;;4932241;28;45394;-63
2022/09/17 09:51:46;;;;;;;;;;;21.20;45.10;;;;;;4928476;28;45704;-62
2022/09/17 09:54:14;;;;;;;;;;;21.20;45.10;;;;;;4929142;28;45304;-63
2022/09/17 09:56:49;;;;;;;;;;;21.20;45.10;;;;;;4929209;28;45398;-63
2022/09/17 09:59:15;;;;;;;;;;;21.20;45.10;;;;;;4929934;28;45580;-63
2022/09/17 10:01:41;;;;;;;;;;;21.20;45.10;;;;;;4930613;28;45265;-63
2022/09/17 10:04:15;;;;;;;;;;;21.20;45.10;;;;;;4932570;28;44740;-62
2022/09/17 10:06:41;;;;;;;;;;;21.20;45.10;;;;;;4930963;28;45385;-63
2022/09/17 10:09:06;;;;;;;;;;;21.20;45.10;;;;;;4914040;28;44759;-63
2022/09/17 10:11:32;;;;;;;;;;;21.20;45.20;;;;;;4928953;28;45365;-62
2022/09/17 10:14:16;;;;;;;;;;;21.20;45.10;;;;;;4914492;28;45436;-62
2022/09/17 10:16:41;;;;;;;;;;;21.20;45.10;;;;;;4913101;28;45879;-62
2022/09/17 10:19:07;;;;;;;;;;;21.20;45.10;;;;;;4913620;28;45422;-62
2022/09/17 10:21:32;;;;;;;;;;;21.30;45.10;;;;;;4927096;28;45248;-62
2022/09/17 10:23:58;;;;;;;;;;;21.20;45.10;;;;;;4927787;28;46176;-62
2022/09/17 10:26:25;;;;;;;;;;;21.30;45.10;;;;;;4928869;28;46315;-62
2022/09/17 10:28:51;;;;;;;;;;;21.30;45.00;;;;;;4911571;28;44869;-63
2022/09/17 10:31:16;;;;;;;;;;;21.30;45.00;;;;;;4909066;28;44689;-63
2022/09/17 10:33:51;;;;;;;;;;;21.30;45.00;;;;;;4915991;28;45614;-62
2022/09/17 10:36:16;;;;;;;;;;;21.30;45.00;;;;;;4915588;28;45376;-63
2022/09/17 10:38:44;;;;;;;;;;;21.30;45.00;;;;;;4913873;28;45465;-62
2022/09/17 10:41:17;;;;;;;;;;;21.30;45.00;;;;;;4911517;28;45781;-63
2022/09/17 10:43:43;;;;;;;;;;;21.30;45.00;;;;;;4926898;28;45474;-62
2022/09/17 10:46:10;;;;;;;;;;;21.30;45.00;;;;;;4910842;28;45306;-63
2022/09/17 10:49:05;;;;;;;;;;;21.30;45.00;;;;;;4926234;28;45349;-62
2022/09/17 10:51:31;;;;;;;;;;;21.30;45.50;;;;;;4898262;28;45632;-62
2022/09/17 10:53:58;;;;;;;;;;;21.30;44.90;;;;;;4896805;28;45497;-62
2022/09/17 10:56:28;;;;;;;;;;;21.30;44.90;;;;;;4913832;28;45502;-63
2022/09/17 10:59:12;;;;;;;;;;;21.30;44.90;;;;;;4908493;28;45431;-62
2022/09/17 11:01:43;;;;;;;;;;;21.40;45.00;;;;;;4923972;28;45407;-62
2022/09/17 11:04:22;;;;;;;;;;;21.40;44.90;;;;;;4915533;28;45461;-63
2022/09/17 11:06:57;;;;;;;;;;;21.40;44.90;;;;;;4914890;28;45512;-62
2022/09/17 11:09:26;;;;;;;;;;;21.40;44.80;;;;;;4928727;28;44794;-62
2022/09/17 11:12:10;;;;;;;;;;;21.40;44.70;;;;;;4924110;28;45646;-62
2022/09/17 11:14:54;;;;;;;;;;;21.40;44.80;;;;;;4927914;28;45429;-63
2022/09/17 11:17:25;;;;;;;;;;;21.40;44.80;;;;;;4929522;28;45329;-62
2022/09/17 11:20:09;;;;;;;;;;;21.40;44.80;;;;;;4930368;28;45235;-63
2022/09/17 11:22:54;;;;;;;;;;;21.40;44.70;;;;;;4913136;28;45371;-63
2022/09/17 11:25:38;;;;;;;;;;;21.40;44.90;;;;;;4912082;28;45512;-63
2022/09/17 11:28:24;;;;;;;;;;;21.40;44.70;;;;;;4927845;28;45487;-63
2022/09/17 11:30:53;;;;;;;;;;;21.40;44.80;;;;;;4874940;28;45550;-63
2022/09/17 11:33:19;;;;;;;;;;;21.40;44.70;;;;;;4898660;28;45558;-62
2022/09/17 11:35:48;;;;;;;;;;;21.50;44.70;;;;;;4934098;28;45225;-62
2022/09/17 11:38:33;;;;;;;;;;;21.50;44.70;;;;;;4935445;28;46151;-62
2022/09/17 11:40:59;;;;;;;;;;;21.50;44.80;;;;;;4911148;28;45525;-63
2022/09/17 11:43:25;;;;;;;;;;;21.50;44.80;;;;;;4922254;28;44767;-62
2022/09/17 11:45:54;;;;;;;;;;;21.50;44.70;;;;;;4918054;28;45121;-59
2022/09/17 11:48:21;;;;;;;;;;;21.50;44.60;;;;;;4929226;28;46698;-62
2022/09/17 11:50:48;;;;;;;;;;;21.50;44.60;;;;;;4910294;28;44972;-62
2022/09/17 11:53:22;;;;;;;;;;;21.50;44.60;;;;;;4913732;28;45584;-58
2022/09/17 11:55:50;;;;;;;;;;;21.50;44.70;;;;;;4927863;28;45389;-59
2022/09/17 11:58:25;;;;;;;;;;;21.50;44.70;;;;;;4913841;28;45532;-58
2022/09/17 12:00:58;;;;;;;;;;;21.60;44.80;;;;;;4907567;28;45367;-59
2022/09/17 12:03:26;;;;;;;;;;;21.60;44.90;;;;;;4910601;28;45283;-59
2022/09/17 12:05:53;;;;;;;;;;;21.60;44.70;;;;;;4910270;28;45093;-58
2022/09/17 12:08:20;;;;;;;;;;;21.60;44.70;;;;;;4915543;28;46421;-60
2022/09/17 12:10:48;;;;;;;;;;;21.60;44.70;;;;;;4897383;28;45241;-58
2022/09/17 12:13:27;;;;;;;;;;;21.60;44.70;;;;;;4906551;28;45323;-60
2022/09/17 12:16:11;;;;;;;;;;;21.70;44.70;;;;;;4901775;28;45584;-60
2022/09/17 12:18:43;;;;;;;;;;;21.70;44.70;;;;;;4909851;28;45370;-61
2022/09/17 12:21:09;;;;;;;;;;;21.70;44.80;;;;;;4906129;28;44737;-60
2022/09/17 12:23:42;;;;;;;;;;;21.60;44.80;;;;;;4906113;28;45253;-60
2022/09/17 12:26:13;;;;;;;;;;;21.70;44.80;;;;;;4892097;28;45349;-60
2022/09/17 12:28:45;;;;;;;;;;;21.70;44.80;;;;;;4907971;28;45286;-60
2022/09/17 12:31:17;;;;;;;;;;;21.70;44.80;;;;;;4891748;28;44687;-59
2022/09/17 12:33:45;;;;;;;;;;;21.60;44.90;;;;;;4908418;28;45663;-60
2022/09/17 12:36:20;;;;;;;;;;;21.60;45.00;;;;;;4906341;28;45638;-60
2022/09/17 12:38:57;;;;;;;;;;;21.60;45.10;;;;;;4911284;28;46403;-59
2022/09/17 12:41:31;;;;;;;;;;;21.60;45.10;;;;;;4910767;28;44708;-58
2022/09/17 12:44:16;;;;;;;;;;;21.60;45.20;;;;;;4914773;28;45349;-61
2022/09/17 12:46:41;;;;;;;;;;;21.70;45.10;;;;;;4911642;28;44835;-61
2022/09/17 12:49:12;;;;;;;;;;;21.60;45.00;;;;;;4910058;28;46942;-58
2022/09/17 12:51:55;;;;;;;;;;;21.60;45.10;;;;;;4912680;28;44779;-60
2022/09/17 12:54:26;;;;;;;;;;;21.60;45.10;;;;;;4907673;28;45240;-60
2022/09/17 12:56:57;;;;;;;;;;;21.60;45.20;;;;;;4915417;28;45143;-61
2022/09/17 12:59:25;;;;;;;;;;;21.60;45.20;;;;;;4907984;28;46332;-60
2022/09/17 13:01:53;;;;;;;;;;;21.60;45.10;;;;;;4910585;28;45228;-61
2022/09/17 13:04:25;;;;;;;;;;;21.60;45.60;;;;;;4907717;28;45394;-60
2022/09/17 13:06:50;;;;;;;;;;;21.60;45.00;;;;;;4912287;28;45440;-60
2022/09/17 13:09:28;;;;;;;;;;;21.60;45.00;;;;;;4913286;28;46263;-60
2022/09/17 13:12:07;;;;;;;;;;;21.60;45.00;;;;;;4909047;28;45034;-60
2022/09/17 13:14:33;;;;;;;;;;;21.60;44.90;;;;;;4906048;28;45258;-60
2022/09/17 13:17:03;;;;;;;;;;;21.60;44.90;;;;;;4909371;28;45644;-61
2022/09/17 13:19:47;;;;;;;;;;;21.60;44.90;;;;;;4912853;28;46005;-60
2022/09/17 13:22:16;;;;;;;;;;;21.60;45.00;;;;;;4910189;28;45218;-61
2022/09/17 13:24:42;;;;;;;;;;;21.60;45.20;;;;;;4909670;28;45409;-61
2022/09/17 13:27:19;;;;;;;;;;;21.60;45.20;;;;;;4914671;28;45201;-60
2022/09/17 13:29:44;;;;;;;;;;;21.60;45.20;;;;;;4905618;28;46181;-60
2022/09/17 13:32:29;;;;;;;;;;;21.60;45.20;;;;;;4908908;28;45236;-60
2022/09/17 13:34:54;;;;;;;;;;;21.60;45.20;;;;;;4909149;28;45194;-61
2022/09/17 13:37:21;;;;;;;;;;;21.60;45.10;;;;;;4912855;28;46796;-61
2022/09/17 13:39:46;;;;;;;;;;;21.60;45.20;;;;;;4925648;28;45182;-61
2022/09/17 13:42:14;;;;;;;;;;;21.50;45.20;;;;;;4911860;28;45670;-61
2022/09/17 13:44:41;;;;;;;;;;;21.50;45.20;;;;;;4914853;28;45051;-60
2022/09/17 13:47:33;;;;;;;;;;;21.50;45.20;;;;;;4916417;28;45023;-60
2022/09/17 13:50:08;;;;;;;;;;;21.50;45.20;;;;;;4906223;28;47051;-60
2022/09/17 13:52:43;;;;;;;;;;;21.50;45.20;;;;;;4912134;28;45549;-60
2022/09/17 13:55:28;;;;;;;;;;;21.50;45.20;;;;;;4913442;28;45291;-60
2022/09/17 13:57:54;;;;;;;;;;;21.50;45.30;;;;;;4915527;28;45165;-60
2022/09/17 14:00:38;;;;;;;;;;;21.50;45.30;;;;;;4912177;28;45254;-58
2022/09/17 14:03:22;;;;;;;;;;;21.50;45.30;;;;;;4930665;28;45538;-61
2022/09/17 14:05:47;;;;;;;;;;;21.50;45.30;;;;;;4920836;28;45545;-60
2022/09/17 14:08:13;;;;;;;;;;;21.50;45.30;;;;;;4935628;28;45468;-60
2022/09/17 14:10:40;;;;;;;;;;;21.50;45.40;;;;;;4903244;28;45444;-59
2022/09/17 14:13:37;;;;;;;;;;;21.50;45.40;;;;;;4930172;28;45243;-59
2022/09/17 14:16:20;;;;;;;;;;;21.50;45.30;;;;;;4914571;28;45070;-60
2022/09/17 14:18:54;;;;;;;;;;;21.50;45.30;;;;;;4926655;28;45194;-60
2022/09/17 14:21:23;;;;;;;;;;;21.50;45.30;;;;;;4931340;28;45483;-60
2022/09/17 14:23:51;;;;;;;;;;;21.50;45.30;;;;;;4915194;28;44726;-61
2022/09/17 14:26:18;;;;;;;;;;;21.50;45.20;;;;;;4918038;28;44725;-61
2022/09/17 14:28:47;;;;;;;;;;;21.50;45.20;;;;;;4913087;28;45318;-60
2022/09/17 14:31:16;;;;;;;;;;;21.50;45.20;;;;;;4924505;28;46141;-61
2022/09/17 14:33:42;;;;;;;;;;;21.60;45.30;;;;;;4918495;28;44797;-60
2022/09/17 14:36:08;;;;;;;;;;;21.50;45.20;;;;;;4928420;28;45361;-60
2022/09/17 14:38:47;;;;;;;;;;;21.60;45.30;;;;;;4915324;28;45746;-60
2022/09/17 14:41:16;;;;;;;;;;;21.50;45.30;;;;;;4896916;28;45331;-60
2022/09/17 14:43:47;;;;;;;;;;;21.50;45.30;;;;;;4932101;28;45110;-61
2022/09/17 14:46:32;;;;;;;;;;;21.50;45.20;;;;;;4933302;28;45600;-59
2022/09/17 14:49:16;;;;;;;;;;;21.60;45.30;;;;;;4926170;28;45294;-61
2022/09/17 14:51:41;;;;;;;;;;;21.60;45.30;;;;;;4917269;28;45253;-61
2022/09/17 14:54:13;;;;;;;;;;;21.60;45.30;;;;;;4902594;28;45860;-61
2022/09/17 14:56:42;;;;;;;;;;;21.50;45.20;;;;;;4929939;28;45193;-61
2022/09/17 14:59:09;;;;;;;;;;;21.60;45.30;;;;;;4917424;28;45210;-60
2022/09/17 15:01:34;;;;;;;;;;;21.60;45.30;;;;;;4912216;28;45636;-60
2022/09/17 15:04:09;;;;;;;;;;;21.60;45.30;;;;;;4926126;28;45505;-60
2022/09/17 15:06:35;;;;;;;;;;;21.60;45.30;;;;;;4929497;28;45142;-60
2022/09/17 15:09:00;;;;;;;;;;;21.60;45.30;;;;;;4926409;28;45264;-60
2022/09/17 15:11:26;;;;;;;;;;;21.60;45.30;;;;;;4910022;28;47297;-60
2022/09/17 15:13:51;;;;;;;;;;;21.60;45.30;;;;;;4933720;28;45190;-60
2022/09/17 15:16:26;;;;;;;;;;;21.60;45.30;;;;;;4918728;28;46608;-60
2022/09/17 15:18:52;;;;;;;;;;;21.60;45.30;;;;;;4924391;28;45396;-60
2022/09/17 15:21:21;;;;;;;;;;;21.60;45.30;;;;;;4915459;28;45666;-59
2022/09/17 15:23:47;;;;;;;;;;;21.60;45.30;;;;;;4933939;28;44862;-61
2022/09/17 15:26:12;;;;;;;;;;;21.60;45.30;;;;;;4911268;28;46427;-60
2022/09/17 15:28:38;;;;;;;;;;;21.60;45.30;;;;;;4901859;28;45166;-60
2022/09/17 15:31:04;;;;;;;;;;;21.60;45.30;;;;;;4914289;28;45571;-60
2022/09/17 15:33:30;;;;;;;;;;;21.50;45.20;;;;;;4918178;28;45392;-61
2022/09/17 15:36:02;;;;;;;;;;;21.60;45.10;;;;;;4914372;28;44814;-60
2022/09/17 15:38:28;;;;;;;;;;;21.60;45.20;;;;;;4933470;28;45654;-60
2022/09/17 15:40:53;;;;;;;;;;;21.60;45.20;;;;;;4929940;28;45968;-60
2022/09/17 15:43:25;;;;;;;;;;;21.60;45.20;;;;;;4929265;28;45234;-60
2022/09/17 15:45:51;;;;;;;;;;;21.60;45.30;;;;;;4935104;28;45269;-60
2022/09/17 15:48:21;;;;;;;;;;;21.60;45.20;;;;;;4900700;28;45361;-60
2022/09/17 15:50:53;;;;;;;;;;;21.60;45.20;;;;;;4908895;28;46455;-60
2022/09/17 15:53:23;;;;;;;;;;;21.60;45.10;;;;;;4928054;28;45230;-58
2022/09/17 15:55:59;;;;;;;;;;;21.60;45.10;;;;;;4907725;28;44645;-60
2022/09/17 15:58:25;;;;;;;;;;;21.50;45.10;;;;;;4907164;28;45649;-60
2022/09/17 16:01:11;;;;;;;;;;;21.60;45.10;;;;;;4928424;28;45238;-60
2022/09/17 16:03:36;;;;;;;;;;;21.60;45.00;;;;;;4885576;28;45685;-60
2022/09/17 16:06:03;;;;;;;;;;;21.60;45.00;;;;;;4930763;28;44869;-61
2022/09/17 16:08:32;;;;;;;;;;;21.60;45.00;;;;;;4929637;28;45663;-60
2022/09/17 16:10:58;;;;;;;;;;;21.60;45.00;;;;;;4929386;28;45447;-60
2022/09/17 16:13:23;;;;;;;;;;;21.60;44.90;;;;;;4932621;28;45564;-61
2022/09/17 16:15:49;;;;;;;;;;;21.50;44.90;;;;;;4929664;28;46166;-58
2022/09/17 16:18:14;;;;;;;;;;;21.50;44.90;;;;;;4895061;28;45496;-60
2022/09/17 16:20:40;;;;;;;;;;;21.60;44.90;;;;;;4929505;28;45406;-60
2022/09/17 16:23:05;;;;;;;;;;;21.60;44.90;;;;;;4909371;28;45575;-60
2022/09/17 16:25:31;;;;;;;;;;;21.60;44.90;;;;;;4928245;28;45273;-58
2022/09/17 16:28:01;;;;;;;;;;;21.60;44.90;;;;;;4909565;28;45004;-58
2022/09/17 16:30:26;;;;;;;;;;;21.60;44.80;;;;;;4908226;28;47175;-58
2022/09/17 16:32:53;;;;;;;;;;;21.60;44.90;;;;;;4910494;28;45150;-60
2022/09/17 16:35:20;;;;;;;;;;;21.60;44.80;;;;;;4929876;28;44922;-59
2022/09/17 16:37:49;;;;;;;;;;;21.50;44.80;;;;;;4920021;28;45304;-60
2022/09/17 16:40:14;;;;;;;;;;;21.50;44.80;;;;;;4905399;28;46173;-60
2022/09/17 16:42:40;;;;;;;;;;;21.50;44.80;;;;;;4903123;28;45900;-60
2022/09/17 16:45:06;;;;;;;;;;;21.50;44.80;;;;;;4925250;28;46087;-58
2022/09/17 16:47:38;;;;;;;;;;;21.50;44.90;;;;;;4907250;28;45532;-60
2022/09/17 16:50:04;;;;;;;;;;;21.50;44.90;;;;;;4924940;28;48306;-60
2022/09/17 16:52:30;;;;;;;;;;;21.50;45.00;;;;;;4925381;28;45957;-60
2022/09/17 16:54:55;;;;;;;;;;;21.50;45.00;;;;;;4927862;28;45034;-60
2022/09/17 16:57:21;;;;;;;;;;;21.50;45.00;;;;;;4908294;28;44755;-59
2022/09/17 16:59:46;;;;;;;;;;;21.50;45.10;;;;;;4923919;28;46401;-60
2022/09/17 17:02:12;;;;;;;;;;;21.40;45.10;;;;;;4924999;28;45454;-60
2022/09/17 17:04:38;;;;;;;;;;;21.40;45.10;;;;;;4925668;28;45248;-60
2022/09/17 17:07:03;;;;;;;;;;;21.40;45.10;;;;;;4927627;28;45647;-60
2022/09/17 17:09:29;;;;;;;;;;;21.40;45.10;;;;;;4927032;28;46488;-60
2022/09/17 17:11:54;;;;;;;;;;;21.40;45.20;;;;;;4922608;28;46425;-60
2022/09/17 17:14:20;;;;;;;;;;;21.40;45.20;;;;;;4927461;28;45280;-60